sensor_id;sensor_type;location;lat;lon;timestamp;pressure;altitude;pressure_sealevel;temperature;humidity
75247;BME280;63844;50.042;19.224;2024-02-21T00:00:20;99643.05;;;4.42;100.00
75247;BME280;63844;50.042;19.224;2024-02-21T00:02:16;99646.67;;;4.44;100.00
75247;BME280;63844;50.042;19.224;2024-02-21T00:03:53;99640.39;;;4.43;100.00
75247;BME280;63844;50.042;19.224;2024-02-21T00:05:29;99645.27;;;4.45;100.00
75247;BME280;63844;50.042;19.224;2024-02-21T00:07:06;99644.37;;;4.45;100.00
75247;BME280;63844;50.042;19.224;2024-02-21T00:08:42;99643.17;;;4.44;100.00
75247;BME280;63844;50.042;19.224;2024-02-21T00:10:18;99639.16;;;4.44;100.00
75247;BME280;63844;50.042;19.224;2024-02-21T00:11:55;99638.14;;;4.43;100.00
75247;BME280;63844;50.042;19.224;2024-02-21T00:13:31;99635.89;;;4.42;100.00
75247;BME280;63844;50.042;19.224;2024-02-21T00:15:09;99636.79;;;4.41;100.00
75247;BME280;63844;50.042;19.224;2024-02-21T00:16:45;99635.98;;;4.39;100.00
75247;BME280;63844;50.042;19.224;2024-02-21T00:18:22;99634.21;;;4.39;100.00
75247;BME280;63844;50.042;19.224;2024-02-21T00:19:58;99634.52;;;4.41;100.00
75247;BME280;63844;50.042;19.224;2024-02-21T00:21:35;99634.35;;;4.40;100.00
75247;BME280;63844;50.042;19.224;2024-02-21T00:23:11;99635.09;;;4.40;100.00
75247;BME280;63844;50.042;19.224;2024-02-21T00:24:48;99637.20;;;4.39;100.00
75247;BME280;63844;50.042;19.224;2024-02-21T00:26:24;99637.16;;;4.40;100.00
75247;BME280;63844;50.042;19.224;2024-02-21T00:28:02;99633.33;;;4.40;100.00
75247;BME280;63844;50.042;19.224;2024-02-21T00:29:39;99638.74;;;4.40;100.00
75247;BME280;63844;50.042;19.224;2024-02-21T00:31:15;99636.59;;;4.42;100.00
75247;BME280;63844;50.042;19.224;2024-02-21T00:32:52;99633.41;;;4.43;100.00
75247;BME280;63844;50.042;19.224;2024-02-21T00:34:28;99630.59;;;4.43;100.00
75247;BME280;63844;50.042;19.224;2024-02-21T00:36:05;99629.89;;;4.43;100.00
75247;BME280;63844;50.042;19.224;2024-02-21T00:37:41;99627.98;;;4.43;100.00
75247;BME280;63844;50.042;19.224;2024-02-21T00:39:18;99626.35;;;4.44;100.00
75247;BME280;63844;50.042;19.224;2024-02-21T00:40:54;99624.96;;;4.44;100.00
75247;BME280;63844;50.042;19.224;2024-02-21T00:42:31;99619.46;;;4.45;100.00
75247;BME280;63844;50.042;19.224;2024-02-21T00:44:07;99613.45;;;4.48;100.00
75247;BME280;63844;50.042;19.224;2024-02-21T00:45:44;99602.17;;;4.49;100.00
75247;BME280;63844;50.042;19.224;2024-02-21T00:47:20;99600.13;;;4.48;100.00
75247;BME280;63844;50.042;19.224;2024-02-21T00:48:57;99594.88;;;4.47;100.00
75247;BME280;63844;50.042;19.224;2024-02-21T00:50:33;99595.58;;;4.47;100.00
75247;BME280;63844;50.042;19.224;2024-02-21T00:52:10;99597.83;;;4.48;100.00
75247;BME280;63844;50.042;19.224;2024-02-21T00:53:46;99600.31;;;4.47;100.00
75247;BME280;63844;50.042;19.224;2024-02-21T00:55:23;99603.27;;;4.48;100.00
75247;BME280;63844;50.042;19.224;2024-02-21T00:57:00;99598.56;;;4.48;100.00
75247;BME280;63844;50.042;19.224;2024-02-21T00:58:36;99599.79;;;4.48;100.00
75247;BME280;63844;50.042;19.224;2024-02-21T01:00:13;99592.42;;;4.47;100.00
75247;BME280;63844;50.042;19.224;2024-02-21T01:01:50;99597.45;;;4.49;100.00
75247;BME280;63844;50.042;19.224;2024-02-21T01:03:26;99596.13;;;4.47;100.00
75247;BME280;63844;50.042;19.224;2024-02-21T01:05:03;99591.23;;;4.46;100.00
75247;BME280;63844;50.042;19.224;2024-02-21T01:06:39;99591.55;;;4.47;100.00
75247;BME280;63844;50.042;19.224;2024-02-21T01:08:19;99591.88;;;4.48;100.00
75247;BME280;63844;50.042;19.224;2024-02-21T01:09:55;99590.10;;;4.49;100.00
75247;BME280;63844;50.042;19.224;2024-02-21T01:11:32;99585.41;;;4.47;100.00
75247;BME280;63844;50.042;19.224;2024-02-21T01:13:08;99581.04;;;4.47;100.00
75247;BME280;63844;50.042;19.224;2024-02-21T01:14:45;99577.55;;;4.47;100.00
75247;BME280;63844;50.042;19.224;2024-02-21T01:16:26;99577.05;;;4.46;100.00
75247;BME280;63844;50.042;19.224;2024-02-21T01:18:03;99576.53;;;4.46;100.00
75247;BME280;63844;50.042;19.224;2024-02-21T01:19:39;99576.56;;;4.44;100.00
75247;BME280;63844;50.042;19.224;2024-02-21T01:21:16;99573.08;;;4.44;100.00
75247;BME280;63844;50.042;19.224;2024-02-21T01:22:52;99575.86;;;4.44;100.00
75247;BME280;63844;50.042;19.224;2024-02-21T01:24:29;99579.83;;;4.46;100.00
75247;BME280;63844;50.042;19.224;2024-02-21T01:26:05;99579.29;;;4.47;100.00
75247;BME280;63844;50.042;19.224;2024-02-21T01:27:44;99579.05;;;4.49;100.00
75247;BME280;63844;50.042;19.224;2024-02-21T01:29:20;99578.14;;;4.50;100.00
75247;BME280;63844;50.042;19.224;2024-02-21T01:30:57;99578.73;;;4.48;100.00
75247;BME280;63844;50.042;19.224;2024-02-21T01:32:36;99579.64;;;4.47;100.00
75247;BME280;63844;50.042;19.224;2024-02-21T01:34:13;99578.80;;;4.46;100.00
75247;BME280;63844;50.042;19.224;2024-02-21T01:35:49;99575.46;;;4.46;100.00
75247;BME280;63844;50.042;19.224;2024-02-21T01:37:26;99575.24;;;4.47;100.00
75247;BME280;63844;50.042;19.224;2024-02-21T01:39:02;99572.23;;;4.49;100.00
75247;BME280;63844;50.042;19.224;2024-02-21T01:40:39;99569.78;;;4.48;100.00
75247;BME280;63844;50.042;19.224;2024-02-21T01:42:16;99569.55;;;4.50;100.00
75247;BME280;63844;50.042;19.224;2024-02-21T01:43:52;99566.19;;;4.51;100.00
75247;BME280;63844;50.042;19.224;2024-02-21T01:45:28;99565.51;;;4.51;100.00
75247;BME280;63844;50.042;19.224;2024-02-21T01:47:05;99566.58;;;4.50;100.00
75247;BME280;63844;50.042;19.224;2024-02-21T01:48:42;99564.29;;;4.50;100.00
75247;BME280;63844;50.042;19.224;2024-02-21T01:50:19;99561.81;;;4.51;100.00
75247;BME280;63844;50.042;19.224;2024-02-21T01:51:55;99562.73;;;4.50;100.00
75247;BME280;63844;50.042;19.224;2024-02-21T01:53:40;99556.92;;;4.50;100.00
75247;BME280;63844;50.042;19.224;2024-02-21T01:55:18;99554.31;;;4.50;100.00
75247;BME280;63844;50.042;19.224;2024-02-21T01:56:55;99555.02;;;4.49;100.00
75247;BME280;63844;50.042;19.224;2024-02-21T01:58:33;99552.44;;;4.48;100.00
75247;BME280;63844;50.042;19.224;2024-02-21T02:00:13;99555.54;;;4.50;100.00
75247;BME280;63844;50.042;19.224;2024-02-21T02:01:51;99552.79;;;4.48;100.00
75247;BME280;63844;50.042;19.224;2024-02-21T02:03:29;99555.97;;;4.47;100.00
75247;BME280;63844;50.042;19.224;2024-02-21T02:05:07;99555.44;;;4.48;100.00
75247;BME280;63844;50.042;19.224;2024-02-21T02:06:44;99560.67;;;4.48;100.00
75247;BME280;63844;50.042;19.224;2024-02-21T02:08:21;99556.66;;;4.48;100.00
75247;BME280;63844;50.042;19.224;2024-02-21T02:09:59;99558.61;;;4.47;100.00
75247;BME280;63844;50.042;19.224;2024-02-21T02:11:36;99557.89;;;4.47;100.00
75247;BME280;63844;50.042;19.224;2024-02-21T02:13:12;99558.25;;;4.47;100.00
75247;BME280;63844;50.042;19.224;2024-02-21T02:15:02;99552.64;;;4.47;100.00
75247;BME280;63844;50.042;19.224;2024-02-21T02:16:42;99556.68;;;4.47;100.00
75247;BME280;63844;50.042;19.224;2024-02-21T02:18:22;99554.43;;;4.46;100.00
75247;BME280;63844;50.042;19.224;2024-02-21T02:19:58;99553.71;;;4.47;100.00
75247;BME280;63844;50.042;19.224;2024-02-21T02:21:42;99553.04;;;4.45;100.00
75247;BME280;63844;50.042;19.224;2024-02-21T02:23:30;99550.67;;;4.43;100.00
75247;BME280;63844;50.042;19.224;2024-02-21T02:25:08;99551.79;;;4.41;100.00
75247;BME280;63844;50.042;19.224;2024-02-21T02:26:45;99547.27;;;4.40;100.00
75247;BME280;63844;50.042;19.224;2024-02-21T02:28:21;99547.48;;;4.38;100.00
75247;BME280;63844;50.042;19.224;2024-02-21T02:29:58;99545.36;;;4.40;100.00
75247;BME280;63844;50.042;19.224;2024-02-21T02:31:35;99543.87;;;4.37;100.00
75247;BME280;63844;50.042;19.224;2024-02-21T02:33:11;99541.78;;;4.36;100.00
75247;BME280;63844;50.042;19.224;2024-02-21T02:34:48;99541.09;;;4.36;100.00
75247;BME280;63844;50.042;19.224;2024-02-21T02:36:24;99540.48;;;4.33;100.00
75247;BME280;63844;50.042;19.224;2024-02-21T02:38:01;99541.05;;;4.32;100.00
75247;BME280;63844;50.042;19.224;2024-02-21T02:39:38;99541.07;;;4.31;100.00
75247;BME280;63844;50.042;19.224;2024-02-21T02:41:14;99540.02;;;4.31;100.00
75247;BME280;63844;50.042;19.224;2024-02-21T02:42:51;99539.20;;;4.29;100.00
75247;BME280;63844;50.042;19.224;2024-02-21T02:44:27;99535.02;;;4.29;100.00
75247;BME280;63844;50.042;19.224;2024-02-21T02:46:07;99539.21;;;4.29;100.00
75247;BME280;63844;50.042;19.224;2024-02-21T02:47:44;99541.27;;;4.31;100.00
75247;BME280;63844;50.042;19.224;2024-02-21T02:49:24;99539.70;;;4.30;100.00
75247;BME280;63844;50.042;19.224;2024-02-21T02:51:00;99537.23;;;4.31;100.00
75247;BME280;63844;50.042;19.224;2024-02-21T02:52:37;99540.56;;;4.31;100.00
75247;BME280;63844;50.042;19.224;2024-02-21T02:54:14;99539.38;;;4.29;100.00
75247;BME280;63844;50.042;19.224;2024-02-21T02:55:51;99542.36;;;4.29;100.00
75247;BME280;63844;50.042;19.224;2024-02-21T02:57:27;99537.45;;;4.29;100.00
75247;BME280;63844;50.042;19.224;2024-02-21T02:59:04;99536.37;;;4.30;100.00
75247;BME280;63844;50.042;19.224;2024-02-21T03:00:43;99538.42;;;4.32;100.00
75247;BME280;63844;50.042;19.224;2024-02-21T03:02:20;99534.94;;;4.31;100.00
75247;BME280;63844;50.042;19.224;2024-02-21T03:03:59;99530.02;;;4.31;100.00
75247;BME280;63844;50.042;19.224;2024-02-21T03:05:35;99530.96;;;4.29;100.00
75247;BME280;63844;50.042;19.224;2024-02-21T03:07:14;99530.59;;;4.29;100.00
75247;BME280;63844;50.042;19.224;2024-02-21T03:08:53;99529.01;;;4.30;100.00
75247;BME280;63844;50.042;19.224;2024-02-21T03:10:31;99527.48;;;4.28;100.00
75247;BME280;63844;50.042;19.224;2024-02-21T03:12:07;99522.77;;;4.27;100.00
75247;BME280;63844;50.042;19.224;2024-02-21T03:13:44;99522.63;;;4.26;100.00
75247;BME280;63844;50.042;19.224;2024-02-21T03:15:20;99524.88;;;4.27;100.00
75247;BME280;63844;50.042;19.224;2024-02-21T03:16:58;99520.16;;;4.27;100.00
75247;BME280;63844;50.042;19.224;2024-02-21T03:18:35;99522.85;;;4.25;100.00
75247;BME280;63844;50.042;19.224;2024-02-21T03:20:12;99520.96;;;4.24;100.00
75247;BME280;63844;50.042;19.224;2024-02-21T03:21:49;99520.15;;;4.22;100.00
75247;BME280;63844;50.042;19.224;2024-02-21T03:23:28;99520.52;;;4.22;100.00
75247;BME280;63844;50.042;19.224;2024-02-21T03:25:05;99517.80;;;4.19;100.00
75247;BME280;63844;50.042;19.224;2024-02-21T03:26:42;99515.00;;;4.19;100.00
75247;BME280;63844;50.042;19.224;2024-02-21T03:28:19;99518.19;;;4.17;100.00
75247;BME280;63844;50.042;19.224;2024-02-21T03:29:56;99521.16;;;4.18;100.00
75247;BME280;63844;50.042;19.224;2024-02-21T03:31:32;99525.27;;;4.16;100.00
75247;BME280;63844;50.042;19.224;2024-02-21T03:33:09;99524.93;;;4.15;100.00
75247;BME280;63844;50.042;19.224;2024-02-21T03:34:45;99523.22;;;4.13;100.00
75247;BME280;63844;50.042;19.224;2024-02-21T03:36:22;99523.39;;;4.14;100.00
75247;BME280;63844;50.042;19.224;2024-02-21T03:37:59;99522.63;;;4.15;100.00
75247;BME280;63844;50.042;19.224;2024-02-21T03:39:35;99521.53;;;4.17;100.00
75247;BME280;63844;50.042;19.224;2024-02-21T03:41:13;99517.00;;;4.16;100.00
75247;BME280;63844;50.042;19.224;2024-02-21T03:42:50;99513.20;;;4.15;100.00
75247;BME280;63844;50.042;19.224;2024-02-21T03:44:26;99513.16;;;4.16;100.00
75247;BME280;63844;50.042;19.224;2024-02-21T03:46:03;99511.24;;;4.16;100.00
75247;BME280;63844;50.042;19.224;2024-02-21T03:47:40;99513.16;;;4.16;100.00
75247;BME280;63844;50.042;19.224;2024-02-21T03:49:16;99510.23;;;4.15;100.00
75247;BME280;63844;50.042;19.224;2024-02-21T03:50:54;99505.80;;;4.16;100.00
75247;BME280;63844;50.042;19.224;2024-02-21T03:52:30;99506.54;;;4.15;100.00
75247;BME280;63844;50.042;19.224;2024-02-21T03:54:07;99502.15;;;4.15;100.00
75247;BME280;63844;50.042;19.224;2024-02-21T03:55:43;99506.16;;;4.16;100.00
75247;BME280;63844;50.042;19.224;2024-02-21T03:57:20;99503.17;;;4.16;100.00
75247;BME280;63844;50.042;19.224;2024-02-21T03:58:57;99504.68;;;4.18;100.00
75247;BME280;63844;50.042;19.224;2024-02-21T04:00:34;99506.59;;;4.18;100.00
75247;BME280;63844;50.042;19.224;2024-02-21T04:02:11;99506.63;;;4.17;100.00
75247;BME280;63844;50.042;19.224;2024-02-21T04:03:47;99504.42;;;4.15;100.00
75247;BME280;63844;50.042;19.224;2024-02-21T04:05:24;99500.39;;;4.15;100.00
75247;BME280;63844;50.042;19.224;2024-02-21T04:07:00;99499.32;;;4.16;100.00
75247;BME280;63844;50.042;19.224;2024-02-21T04:08:37;99496.45;;;4.18;100.00
75247;BME280;63844;50.042;19.224;2024-02-21T04:10:14;99494.61;;;4.15;100.00
75247;BME280;63844;50.042;19.224;2024-02-21T04:11:50;99489.48;;;4.17;100.00
75247;BME280;63844;50.042;19.224;2024-02-21T04:13:27;99488.54;;;4.19;100.00
75247;BME280;63844;50.042;19.224;2024-02-21T04:15:04;99489.11;;;4.18;100.00
75247;BME280;63844;50.042;19.224;2024-02-21T04:16:40;99489.13;;;4.17;100.00
75247;BME280;63844;50.042;19.224;2024-02-21T04:18:17;99488.64;;;4.16;100.00
75247;BME280;63844;50.042;19.224;2024-02-21T04:20:02;99490.18;;;4.17;100.00
75247;BME280;63844;50.042;19.224;2024-02-21T04:21:41;99492.98;;;4.17;100.00
75247;BME280;63844;50.042;19.224;2024-02-21T04:23:17;99493.22;;;4.15;100.00
75247;BME280;63844;50.042;19.224;2024-02-21T04:24:54;99499.11;;;4.17;100.00
75247;BME280;63844;50.042;19.224;2024-02-21T04:26:30;99499.61;;;4.18;100.00
75247;BME280;63844;50.042;19.224;2024-02-21T04:28:09;99496.17;;;4.16;100.00
75247;BME280;63844;50.042;19.224;2024-02-21T04:29:46;99496.18;;;4.15;100.00
75247;BME280;63844;50.042;19.224;2024-02-21T04:31:23;99496.17;;;4.16;100.00
75247;BME280;63844;50.042;19.224;2024-02-21T04:32:59;99495.48;;;4.16;100.00
75247;BME280;63844;50.042;19.224;2024-02-21T04:34:36;99498.63;;;4.16;100.00
75247;BME280;63844;50.042;19.224;2024-02-21T04:36:12;99498.60;;;4.16;100.00
75247;BME280;63844;50.042;19.224;2024-02-21T04:37:49;99498.73;;;4.17;100.00
75247;BME280;63844;50.042;19.224;2024-02-21T04:39:25;99501.17;;;4.18;100.00
75247;BME280;63844;50.042;19.224;2024-02-21T04:41:02;99500.27;;;4.19;100.00
75247;BME280;63844;50.042;19.224;2024-02-21T04:42:38;99498.18;;;4.19;100.00
75247;BME280;63844;50.042;19.224;2024-02-21T04:44:15;99496.98;;;4.18;100.00
75247;BME280;63844;50.042;19.224;2024-02-21T04:45:52;99499.44;;;4.17;100.00
75247;BME280;63844;50.042;19.224;2024-02-21T04:47:30;99496.31;;;4.17;100.00
75247;BME280;63844;50.042;19.224;2024-02-21T04:49:06;99494.23;;;4.17;100.00
75247;BME280;63844;50.042;19.224;2024-02-21T04:50:42;99489.31;;;4.17;100.00
75247;BME280;63844;50.042;19.224;2024-02-21T04:52:19;99487.17;;;4.18;100.00
75247;BME280;63844;50.042;19.224;2024-02-21T04:53:55;99488.91;;;4.18;100.00
75247;BME280;63844;50.042;19.224;2024-02-21T04:55:32;99490.00;;;4.17;100.00
75247;BME280;63844;50.042;19.224;2024-02-21T04:57:08;99488.19;;;4.19;100.00
75247;BME280;63844;50.042;19.224;2024-02-21T04:58:46;99483.71;;;4.16;100.00
75247;BME280;63844;50.042;19.224;2024-02-21T05:00:23;99483.05;;;4.15;100.00
75247;BME280;63844;50.042;19.224;2024-02-21T05:01:59;99484.32;;;4.14;100.00
75247;BME280;63844;50.042;19.224;2024-02-21T05:03:36;99481.42;;;4.11;100.00
75247;BME280;63844;50.042;19.224;2024-02-21T05:05:12;99477.53;;;4.07;100.00
75247;BME280;63844;50.042;19.224;2024-02-21T05:06:51;99473.04;;;4.05;100.00
75247;BME280;63844;50.042;19.224;2024-02-21T05:08:27;99472.14;;;4.06;100.00
75247;BME280;63844;50.042;19.224;2024-02-21T05:10:04;99471.80;;;4.05;100.00
75247;BME280;63844;50.042;19.224;2024-02-21T05:11:41;99478.38;;;4.02;100.00
75247;BME280;63844;50.042;19.224;2024-02-21T05:13:17;99477.78;;;3.99;100.00
75247;BME280;63844;50.042;19.224;2024-02-21T05:14:54;99474.86;;;3.98;100.00
75247;BME280;63844;50.042;19.224;2024-02-21T05:16:33;99474.38;;;3.96;100.00
75247;BME280;63844;50.042;19.224;2024-02-21T05:18:10;99477.92;;;3.95;100.00
75247;BME280;63844;50.042;19.224;2024-02-21T05:19:46;99475.15;;;3.94;100.00
75247;BME280;63844;50.042;19.224;2024-02-21T05:21:26;99476.45;;;3.92;100.00
75247;BME280;63844;50.042;19.224;2024-02-21T05:23:04;99473.13;;;3.92;100.00
75247;BME280;63844;50.042;19.224;2024-02-21T05:24:41;99467.52;;;3.92;100.00
75247;BME280;63844;50.042;19.224;2024-02-21T05:26:22;99463.75;;;3.89;100.00
75247;BME280;63844;50.042;19.224;2024-02-21T05:27:59;99469.05;;;3.87;100.00
75247;BME280;63844;50.042;19.224;2024-02-21T05:29:38;99468.94;;;3.86;100.00
75247;BME280;63844;50.042;19.224;2024-02-21T05:31:15;99464.93;;;3.85;100.00
75247;BME280;63844;50.042;19.224;2024-02-21T05:32:52;99467.09;;;3.83;100.00
75247;BME280;63844;50.042;19.224;2024-02-21T05:34:29;99467.11;;;3.82;100.00
75247;BME280;63844;50.042;19.224;2024-02-21T05:36:06;99465.74;;;3.81;100.00
75247;BME280;63844;50.042;19.224;2024-02-21T05:37:43;99463.48;;;3.80;100.00
75247;BME280;63844;50.042;19.224;2024-02-21T05:39:20;99458.64;;;3.78;100.00
75247;BME280;63844;50.042;19.224;2024-02-21T05:40:58;99462.33;;;3.78;100.00
75247;BME280;63844;50.042;19.224;2024-02-21T05:42:35;99463.95;;;3.76;100.00
75247;BME280;63844;50.042;19.224;2024-02-21T05:44:12;99461.48;;;3.77;100.00
75247;BME280;63844;50.042;19.224;2024-02-21T05:45:48;99462.58;;;3.75;100.00
75247;BME280;63844;50.042;19.224;2024-02-21T05:47:25;99460.19;;;3.74;100.00
75247;BME280;63844;50.042;19.224;2024-02-21T05:49:01;99460.00;;;3.74;100.00
75247;BME280;63844;50.042;19.224;2024-02-21T05:50:38;99462.51;;;3.72;100.00
75247;BME280;63844;50.042;19.224;2024-02-21T05:52:14;99461.73;;;3.69;100.00
75247;BME280;63844;50.042;19.224;2024-02-21T05:53:51;99454.91;;;3.69;100.00
75247;BME280;63844;50.042;19.224;2024-02-21T05:55:27;99455.77;;;3.69;100.00
75247;BME280;63844;50.042;19.224;2024-02-21T05:57:04;99452.09;;;3.69;100.00
75247;BME280;63844;50.042;19.224;2024-02-21T05:58:40;99450.73;;;3.69;100.00
75247;BME280;63844;50.042;19.224;2024-02-21T06:00:17;99450.36;;;3.69;100.00
75247;BME280;63844;50.042;19.224;2024-02-21T06:01:57;99449.29;;;3.69;100.00
75247;BME280;63844;50.042;19.224;2024-02-21T06:03:34;99449.31;;;3.69;100.00
75247;BME280;63844;50.042;19.224;2024-02-21T06:05:10;99453.81;;;3.70;100.00
75247;BME280;63844;50.042;19.224;2024-02-21T06:06:47;99453.61;;;3.72;100.00
75247;BME280;63844;50.042;19.224;2024-02-21T06:08:24;99455.27;;;3.74;100.00
75247;BME280;63844;50.042;19.224;2024-02-21T06:10:01;99453.45;;;3.76;100.00
75247;BME280;63844;50.042;19.224;2024-02-21T06:11:38;99451.46;;;3.78;100.00
75247;BME280;63844;50.042;19.224;2024-02-21T06:13:15;99451.71;;;3.81;100.00
75247;BME280;63844;50.042;19.224;2024-02-21T06:14:52;99451.42;;;3.86;100.00
75247;BME280;63844;50.042;19.224;2024-02-21T06:16:28;99451.65;;;3.90;100.00
75247;BME280;63844;50.042;19.224;2024-02-21T06:18:05;99449.81;;;3.92;100.00
75247;BME280;63844;50.042;19.224;2024-02-21T06:19:43;99450.70;;;3.97;100.00
75247;BME280;63844;50.042;19.224;2024-02-21T06:21:19;99450.67;;;3.98;100.00
75247;BME280;63844;50.042;19.224;2024-02-21T06:22:57;99450.74;;;4.01;100.00
75247;BME280;63844;50.042;19.224;2024-02-21T06:24:35;99449.36;;;4.06;100.00
75247;BME280;63844;50.042;19.224;2024-02-21T06:26:12;99446.61;;;4.10;100.00
75247;BME280;63844;50.042;19.224;2024-02-21T06:27:49;99449.73;;;4.16;100.00
75247;BME280;63844;50.042;19.224;2024-02-21T06:29:25;99448.20;;;4.20;100.00
75247;BME280;63844;50.042;19.224;2024-02-21T06:31:02;99445.98;;;4.23;100.00
75247;BME280;63844;50.042;19.224;2024-02-21T06:32:38;99447.64;;;4.32;100.00
75247;BME280;63844;50.042;19.224;2024-02-21T06:34:15;99447.88;;;4.35;100.00
75247;BME280;63844;50.042;19.224;2024-02-21T06:35:53;99448.92;;;4.40;100.00
75247;BME280;63844;50.042;19.224;2024-02-21T06:37:30;99451.52;;;4.47;100.00
75247;BME280;63844;50.042;19.224;2024-02-21T06:39:08;99451.56;;;4.51;100.00
75247;BME280;63844;50.042;19.224;2024-02-21T06:40:45;99445.64;;;4.55;100.00
75247;BME280;63844;50.042;19.224;2024-02-21T06:42:26;99449.28;;;4.56;100.00
75247;BME280;63844;50.042;19.224;2024-02-21T06:44:02;99450.44;;;4.58;100.00
75247;BME280;63844;50.042;19.224;2024-02-21T06:45:39;99451.84;;;4.63;100.00
75247;BME280;63844;50.042;19.224;2024-02-21T06:47:15;99452.73;;;4.68;100.00
75247;BME280;63844;50.042;19.224;2024-02-21T06:48:52;99450.15;;;4.71;100.00
75247;BME280;63844;50.042;19.224;2024-02-21T06:50:29;99447.81;;;4.73;100.00
75247;BME280;63844;50.042;19.224;2024-02-21T06:52:05;99447.36;;;4.76;100.00
75247;BME280;63844;50.042;19.224;2024-02-21T06:53:42;99451.95;;;4.75;100.00
75247;BME280;63844;50.042;19.224;2024-02-21T06:55:20;99448.57;;;4.77;100.00
75247;BME280;63844;50.042;19.224;2024-02-21T06:56:56;99447.00;;;4.82;100.00
75247;BME280;63844;50.042;19.224;2024-02-21T06:58:33;99445.88;;;4.83;100.00
75247;BME280;63844;50.042;19.224;2024-02-21T07:00:09;99450.61;;;4.83;100.00
75247;BME280;63844;50.042;19.224;2024-02-21T07:01:53;99449.58;;;4.88;100.00
75247;BME280;63844;50.042;19.224;2024-02-21T07:03:29;99451.98;;;4.94;100.00
75247;BME280;63844;50.042;19.224;2024-02-21T07:05:06;99450.37;;;4.95;100.00
75247;BME280;63844;50.042;19.224;2024-02-21T07:06:43;99449.01;;;4.99;100.00
75247;BME280;63844;50.042;19.224;2024-02-21T07:08:19;99451.77;;;5.01;100.00
75247;BME280;63844;50.042;19.224;2024-02-21T07:09:56;99452.11;;;5.01;100.00
75247;BME280;63844;50.042;19.224;2024-02-21T07:11:32;99452.04;;;5.03;100.00
75247;BME280;63844;50.042;19.224;2024-02-21T07:13:09;99453.83;;;5.06;100.00
75247;BME280;63844;50.042;19.224;2024-02-21T07:14:45;99453.14;;;5.06;100.00
75247;BME280;63844;50.042;19.224;2024-02-21T07:16:22;99453.20;;;5.09;100.00
75247;BME280;63844;50.042;19.224;2024-02-21T07:17:58;99448.41;;;5.11;100.00
75247;BME280;63844;50.042;19.224;2024-02-21T07:19:35;99446.52;;;5.14;100.00
75247;BME280;63844;50.042;19.224;2024-02-21T07:21:12;99446.14;;;5.15;100.00
75247;BME280;63844;50.042;19.224;2024-02-21T07:22:48;99440.69;;;5.15;100.00
75247;BME280;63844;50.042;19.224;2024-02-21T07:24:25;99437.95;;;5.18;100.00
75247;BME280;63844;50.042;19.224;2024-02-21T07:26:02;99437.61;;;5.23;100.00
75247;BME280;63844;50.042;19.224;2024-02-21T07:27:39;99438.66;;;5.28;100.00
75247;BME280;63844;50.042;19.224;2024-02-21T07:29:16;99435.58;;;5.26;100.00
75247;BME280;63844;50.042;19.224;2024-02-21T07:30:52;99433.92;;;5.27;100.00
75247;BME280;63844;50.042;19.224;2024-02-21T07:32:29;99434.11;;;5.32;100.00
75247;BME280;63844;50.042;19.224;2024-02-21T07:34:05;99437.38;;;5.29;99.95
75247;BME280;63844;50.042;19.224;2024-02-21T07:35:42;99436.13;;;5.30;99.93
75247;BME280;63844;50.042;19.224;2024-02-21T07:37:20;99435.54;;;5.31;100.00
75247;BME280;63844;50.042;19.224;2024-02-21T07:38:57;99435.15;;;5.32;100.00
75247;BME280;63844;50.042;19.224;2024-02-21T07:40:34;99439.98;;;5.34;100.00
75247;BME280;63844;50.042;19.224;2024-02-21T07:42:10;99435.42;;;5.34;99.99
75247;BME280;63844;50.042;19.224;2024-02-21T07:43:47;99438.02;;;5.35;99.95
75247;BME280;63844;50.042;19.224;2024-02-21T07:45:24;99436.31;;;5.34;99.77
75247;BME280;63844;50.042;19.224;2024-02-21T07:47:01;99435.05;;;5.35;100.00
75247;BME280;63844;50.042;19.224;2024-02-21T07:48:40;99432.89;;;5.37;100.00
75247;BME280;63844;50.042;19.224;2024-02-21T07:50:17;99434.36;;;5.35;99.93
75247;BME280;63844;50.042;19.224;2024-02-21T07:51:53;99430.77;;;5.37;99.78
75247;BME280;63844;50.042;19.224;2024-02-21T07:53:30;99434.91;;;5.39;99.95
75247;BME280;63844;50.042;19.224;2024-02-21T07:55:07;99432.14;;;5.38;99.28
75247;BME280;63844;50.042;19.224;2024-02-21T07:56:44;99432.62;;;5.44;100.00
75247;BME280;63844;50.042;19.224;2024-02-21T07:58:20;99432.25;;;5.44;99.59
75247;BME280;63844;50.042;19.224;2024-02-21T07:59:57;99433.34;;;5.43;99.12
75247;BME280;63844;50.042;19.224;2024-02-21T08:01:33;99431.27;;;5.47;99.40
75247;BME280;63844;50.042;19.224;2024-02-21T08:03:09;99430.33;;;5.49;99.54
75247;BME280;63844;50.042;19.224;2024-02-21T08:04:46;99427.16;;;5.53;99.82
75247;BME280;63844;50.042;19.224;2024-02-21T08:06:22;99424.41;;;5.56;99.29
75247;BME280;63844;50.042;19.224;2024-02-21T08:07:59;99425.14;;;5.60;99.33
75247;BME280;63844;50.042;19.224;2024-02-21T08:09:36;99424.95;;;5.65;99.20
75247;BME280;63844;50.042;19.224;2024-02-21T08:11:14;99420.98;;;5.68;98.39
75247;BME280;63844;50.042;19.224;2024-02-21T08:12:50;99420.30;;;5.72;98.68
75247;BME280;63844;50.042;19.224;2024-02-21T08:14:27;99418.50;;;5.73;98.17
75247;BME280;63844;50.042;19.224;2024-02-21T08:16:03;99415.48;;;5.78;99.00
75247;BME280;63844;50.042;19.224;2024-02-21T08:17:40;99409.91;;;5.77;97.56
75247;BME280;63844;50.042;19.224;2024-02-21T08:19:17;99410.46;;;5.80;97.84
75247;BME280;63844;50.042;19.224;2024-02-21T08:20:54;99405.70;;;5.81;97.63
75247;BME280;63844;50.042;19.224;2024-02-21T08:22:30;99399.38;;;5.81;97.33
75247;BME280;63844;50.042;19.224;2024-02-21T08:24:07;99398.42;;;5.83;97.09
75247;BME280;63844;50.042;19.224;2024-02-21T08:25:43;99397.92;;;5.87;97.20
75247;BME280;63844;50.042;19.224;2024-02-21T08:27:20;99394.66;;;5.89;96.91